sensor_id;sensor_type;location;lat;lon;timestamp;P1;durP1;ratioP1;P2;durP2;ratioP2
51515;SDS011;37603;55.614;37.326;2023-04-12T00:02:23;29.3;;;20.8;;
51515;SDS011;37603;55.614;37.326;2023-04-12T00:08:22;28.3;;;21.3;;
51515;SDS011;37603;55.614;37.326;2023-04-12T00:14:21;28.6;;;20.7;;
51515;SDS011;37603;55.614;37.326;2023-04-12T00:20:20;29.0;;;21.5;;
51515;SDS011;37603;55.614;37.326;2023-04-12T00:26:19;30.0;;;22.1;;
51515;SDS011;37603;55.614;37.326;2023-04-12T00:32:18;30.2;;;21.8;;
51515;SDS011;37603;55.614;37.326;2023-04-12T00:38:17;30.9;;;22.2;;
51515;SDS011;37603;55.614;37.326;2023-04-12T00:44:16;31.5;;;22.9;;
51515;SDS011;37603;55.614;37.326;2023-04-12T00:50:14;28.9;;;23.4;;
51515;SDS011;37603;55.614;37.326;2023-04-12T00:56:13;29.6;;;22.9;;
51515;SDS011;37603;55.614;37.326;2023-04-12T01:02:12;31.2;;;23.8;;
51515;SDS011;37603;55.614;37.326;2023-04-12T01:08:13;29.8;;;23.3;;
51515;SDS011;37603;55.614;37.326;2023-04-12T01:14:10;31.0;;;23.8;;
51515;SDS011;37603;55.614;37.326;2023-04-12T01:20:10;30.0;;;23.3;;
51515;SDS011;37603;55.614;37.326;2023-04-12T01:26:11;31.6;;;24.5;;
51515;SDS011;37603;55.614;37.326;2023-04-12T01:32:07;30.3;;;23.9;;
51515;SDS011;37603;55.614;37.326;2023-04-12T01:38:05;29.2;;;23.8;;
51515;SDS011;37603;55.614;37.326;2023-04-12T01:44:04;30.6;;;24.5;;
51515;SDS011;37603;55.614;37.326;2023-04-12T01:50:07;33.1;;;24.7;;
51515;SDS011;37603;55.614;37.326;2023-04-12T01:56:05;29.9;;;24.3;;
51515;SDS011;37603;55.614;37.326;2023-04-12T02:02:01;31.7;;;25.7;;
51515;SDS011;37603;55.614;37.326;2023-04-12T02:08:01;35.3;;;27.3;;
51515;SDS011;37603;55.614;37.326;2023-04-12T02:13:59;36.1;;;28.3;;
51515;SDS011;37603;55.614;37.326;2023-04-12T02:19:57;39.6;;;29.3;;
51515;SDS011;37603;55.614;37.326;2023-04-12T02:25:56;37.3;;;28.9;;
51515;SDS011;37603;55.614;37.326;2023-04-12T02:31:55;39.9;;;29.8;;
51515;SDS011;37603;55.614;37.326;2023-04-12T02:37:54;40.4;;;31.4;;
51515;SDS011;37603;55.614;37.326;2023-04-12T02:43:53;43.6;;;32.4;;
51515;SDS011;37603;55.614;37.326;2023-04-12T02:49:52;42.5;;;31.7;;
51515;SDS011;37603;55.614;37.326;2023-04-12T02:55:50;37.1;;;30.0;;
51515;SDS011;37603;55.614;37.326;2023-04-12T03:01:49;42.3;;;32.1;;
51515;SDS011;37603;55.614;37.326;2023-04-12T03:07:48;40.2;;;32.1;;
51515;SDS011;37603;55.614;37.326;2023-04-12T03:13:47;43.2;;;32.4;;
51515;SDS011;37603;55.614;37.326;2023-04-12T03:19:47;44.2;;;33.0;;
51515;SDS011;37603;55.614;37.326;2023-04-12T03:25:45;44.1;;;35.4;;
51515;SDS011;37603;55.614;37.326;2023-04-12T03:31:43;45.7;;;35.8;;
51515;SDS011;37603;55.614;37.326;2023-04-12T03:37:42;45.5;;;35.9;;
51515;SDS011;37603;55.614;37.326;2023-04-12T03:43:41;47.9;;;36.7;;
51515;SDS011;37603;55.614;37.326;2023-04-12T03:49:40;47.5;;;36.2;;
51515;SDS011;37603;55.614;37.326;2023-04-12T03:55:39;46.9;;;37.6;;
51515;SDS011;37603;55.614;37.326;2023-04-12T04:01:38;51.8;;;38.5;;
51515;SDS011;37603;55.614;37.326;2023-04-12T04:07:37;50.3;;;37.8;;
51515;SDS011;37603;55.614;37.326;2023-04-12T04:13:35;55.6;;;39.7;;
51515;SDS011;37603;55.614;37.326;2023-04-12T04:19:34;49.0;;;37.7;;
51515;SDS011;37603;55.614;37.326;2023-04-12T04:31:32;47.8;;;37.3;;
51515;SDS011;37603;55.614;37.326;2023-04-12T04:37:31;48.8;;;36.6;;
51515;SDS011;37603;55.614;37.326;2023-04-12T04:43:30;47.6;;;34.4;;
51515;SDS011;37603;55.614;37.326;2023-04-12T04:49:29;45.4;;;34.0;;
51515;SDS011;37603;55.614;37.326;2023-04-12T04:55:28;50.2;;;35.4;;
51515;SDS011;37603;55.614;37.326;2023-04-12T05:01:27;46.5;;;34.7;;
51515;SDS011;37603;55.614;37.326;2023-04-12T05:07:26;48.9;;;34.3;;
51515;SDS011;37603;55.614;37.326;2023-04-12T05:13:25;51.8;;;31.6;;
51515;SDS011;37603;55.614;37.326;2023-04-12T05:19:24;60.3;;;32.1;;
51515;SDS011;37603;55.614;37.326;2023-04-12T05:25:23;48.7;;;29.6;;
51515;SDS011;37603;55.614;37.326;2023-04-12T05:31:22;44.9;;;28.3;;
51515;SDS011;37603;55.614;37.326;2023-04-12T05:37:21;40.0;;;23.6;;
51515;SDS011;37603;55.614;37.326;2023-04-12T05:43:20;25.5;;;17.8;;
51515;SDS011;37603;55.614;37.326;2023-04-12T05:49:19;21.8;;;14.6;;
51515;SDS011;37603;55.614;37.326;2023-04-12T05:55:18;18.2;;;12.8;;
51515;SDS011;37603;55.614;37.326;2023-04-12T06:01:17;14.8;;;11.1;;
51515;SDS011;37603;55.614;37.326;2023-04-12T06:07:17;14.6;;;10.2;;
51515;SDS011;37603;55.614;37.326;2023-04-12T06:13:16;16.2;;;9.4;;
51515;SDS011;37603;55.614;37.326;2023-04-12T06:19:15;13.4;;;8.7;;
51515;SDS011;37603;55.614;37.326;2023-04-12T06:25:15;14.8;;;9.0;;
51515;SDS011;37603;55.614;37.326;2023-04-12T06:31:14;10.6;;;8.4;;
51515;SDS011;37603;55.614;37.326;2023-04-12T06:37:13;12.3;;;7.9;;
51515;SDS011;37603;55.614;37.326;2023-04-12T06:43:14;15.1;;;8.5;;
51515;SDS011;37603;55.614;37.326;2023-04-12T06:49:13;12.5;;;8.6;;
51515;SDS011;37603;55.614;37.326;2023-04-12T06:55:12;12.9;;;8.0;;
51515;SDS011;37603;55.614;37.326;2023-04-12T07:01:12;13.0;;;8.3;;
51515;SDS011;37603;55.614;37.326;2023-04-12T07:07:11;12.1;;;7.8;;
51515;SDS011;37603;55.614;37.326;2023-04-12T07:13:11;13.4;;;7.9;;
51515;SDS011;37603;55.614;37.326;2023-04-12T07:19:11;12.6;;;7.1;;
51515;SDS011;37603;55.614;37.326;2023-04-12T07:25:10;10.2;;;6.6;;
51515;SDS011;37603;55.614;37.326;2023-04-12T07:31:10;9.6;;;6.6;;
51515;SDS011;37603;55.614;37.326;2023-04-12T07:37:10;12.6;;;7.6;;
51515;SDS011;37603;55.614;37.326;2023-04-12T07:43:10;13.1;;;7.5;;
51515;SDS011;37603;55.614;37.326;2023-04-12T07:55:09;15.0;;;10.1;;
51515;SDS011;37603;55.614;37.326;2023-04-12T08:01:10;14.7;;;10.5;;
51515;SDS011;37603;55.614;37.326;2023-04-12T08:07:09;13.4;;;10.1;;
51515;SDS011;37603;55.614;37.326;2023-04-12T08:13:09;14.2;;;9.7;;
51515;SDS011;37603;55.614;37.326;2023-04-12T08:19:09;14.4;;;9.7;;
51515;SDS011;37603;55.614;37.326;2023-04-12T08:25:09;11.0;;;8.7;;
51515;SDS011;37603;55.614;37.326;2023-04-12T08:31:08;12.4;;;8.7;;
51515;SDS011;37603;55.614;37.326;2023-04-12T08:37:08;13.4;;;8.7;;
51515;SDS011;37603;55.614;37.326;2023-04-12T08:43:08;14.2;;;10.1;;
51515;SDS011;37603;55.614;37.326;2023-04-12T08:49:08;16.1;;;9.6;;
51515;SDS011;37603;55.614;37.326;2023-04-12T08:55:08;15.9;;;9.1;;
51515;SDS011;37603;55.614;37.326;2023-04-12T09:01:10;10.9;;;7.9;;
51515;SDS011;37603;55.614;37.326;2023-04-12T09:07:07;10.6;;;7.2;;
51515;SDS011;37603;55.614;37.326;2023-04-12T09:13:07;9.7;;;6.9;;
51515;SDS011;37603;55.614;37.326;2023-04-12T09:19:07;7.8;;;6.4;;
51515;SDS011;37603;55.614;37.326;2023-04-12T09:25:07;10.2;;;7.0;;
51515;SDS011;37603;55.614;37.326;2023-04-12T09:31:06;9.7;;;6.9;;
51515;SDS011;37603;55.614;37.326;2023-04-12T09:37:14;10.6;;;6.7;;
51515;SDS011;37603;55.614;37.326;2023-04-12T09:43:06;10.1;;;6.5;;
51515;SDS011;37603;55.614;37.326;2023-04-12T09:49:05;10.7;;;6.2;;
51515;SDS011;37603;55.614;37.326;2023-04-12T09:55:07;8.9;;;6.4;;
51515;SDS011;37603;55.614;37.326;2023-04-12T10:01:05;8.2;;;6.1;;
51515;SDS011;37603;55.614;37.326;2023-04-12T10:07:04;9.5;;;6.1;;
51515;SDS011;37603;55.614;37.326;2023-04-12T10:13:04;8.4;;;6.0;;
51515;SDS011;37603;55.614;37.326;2023-04-12T10:19:04;7.8;;;5.8;;
51515;SDS011;37603;55.614;37.326;2023-04-12T10:25:04;8.4;;;6.0;;
51515;SDS011;37603;55.614;37.326;2023-04-12T10:37:03;7.2;;;6.1;;
51515;SDS011;37603;55.614;37.326;2023-04-12T10:49:06;9.4;;;6.7;;
51515;SDS011;37603;55.614;37.326;2023-04-12T11:01:09;8.0;;;5.8;;
51515;SDS011;37603;55.614;37.326;2023-04-12T11:07:01;8.5;;;6.5;;
51515;SDS011;37603;55.614;37.326;2023-04-12T11:13:04;9.2;;;6.7;;
51515;SDS011;37603;55.614;37.326;2023-04-12T11:19:00;9.0;;;6.1;;
51515;SDS011;37603;55.614;37.326;2023-04-12T11:25:00;8.7;;;6.3;;
51515;SDS011;37603;55.614;37.326;2023-04-12T11:31:00;8.2;;;6.5;;
51515;SDS011;37603;55.614;37.326;2023-04-12T11:36:59;9.3;;;6.6;;
51515;SDS011;37603;55.614;37.326;2023-04-12T11:42:59;8.8;;;6.5;;
51515;SDS011;37603;55.614;37.326;2023-04-12T11:48:59;11.2;;;6.2;;
51515;SDS011;37603;55.614;37.326;2023-04-12T11:54:59;8.4;;;6.3;;
51515;SDS011;37603;55.614;37.326;2023-04-12T12:00:58;8.8;;;6.4;;
51515;SDS011;37603;55.614;37.326;2023-04-12T12:06:58;7.8;;;6.5;;
51515;SDS011;37603;55.614;37.326;2023-04-12T12:12:57;10.7;;;7.3;;
51515;SDS011;37603;55.614;37.326;2023-04-12T12:18:57;10.6;;;6.9;;
51515;SDS011;37603;55.614;37.326;2023-04-12T12:24:57;7.8;;;6.4;;
51515;SDS011;37603;55.614;37.326;2023-04-12T12:30:56;9.2;;;6.8;;
51515;SDS011;37603;55.614;37.326;2023-04-12T12:36:56;10.3;;;6.8;;
51515;SDS011;37603;55.614;37.326;2023-04-12T12:42:56;10.9;;;6.3;;
51515;SDS011;37603;55.614;37.326;2023-04-12T12:48:55;10.3;;;6.6;;
51515;SDS011;37603;55.614;37.326;2023-04-12T12:54:55;9.1;;;6.7;;
51515;SDS011;37603;55.614;37.326;2023-04-12T13:00:54;9.2;;;6.2;;
51515;SDS011;37603;55.614;37.326;2023-04-12T13:06:54;8.6;;;6.1;;
51515;SDS011;37603;55.614;37.326;2023-04-12T13:12:54;10.4;;;6.5;;
51515;SDS011;37603;55.614;37.326;2023-04-12T13:18:53;7.0;;;5.8;;
51515;SDS011;37603;55.614;37.326;2023-04-12T13:24:53;8.0;;;5.7;;
51515;SDS011;37603;55.614;37.326;2023-04-12T13:30:54;8.8;;;6.0;;
51515;SDS011;37603;55.614;37.326;2023-04-12T13:36:52;7.4;;;6.1;;
51515;SDS011;37603;55.614;37.326;2023-04-12T13:42:52;6.8;;;5.5;;
51515;SDS011;37603;55.614;37.326;2023-04-12T13:48:52;7.9;;;5.8;;
51515;SDS011;37603;55.614;37.326;2023-04-12T13:54:51;9.9;;;5.8;;
51515;SDS011;37603;55.614;37.326;2023-04-12T14:00:51;11.2;;;6.2;;
51515;SDS011;37603;55.614;37.326;2023-04-12T14:06:51;8.0;;;6.0;;
51515;SDS011;37603;55.614;37.326;2023-04-12T14:10:25;8.0;;;6.0;;
51515;SDS011;37603;55.614;37.326;2023-04-12T14:12:50;8.5;;;6.2;;
51515;SDS011;37603;55.614;37.326;2023-04-12T14:18:50;9.5;;;6.1;;
51515;SDS011;37603;55.614;37.326;2023-04-12T14:24:49;9.3;;;5.7;;
51515;SDS011;37603;55.614;37.326;2023-04-12T14:30:49;9.0;;;6.3;;
51515;SDS011;37603;55.614;37.326;2023-04-12T14:36:48;11.2;;;6.2;;
51515;SDS011;37603;55.614;37.326;2023-04-12T14:42:48;11.1;;;6.8;;
51515;SDS011;37603;55.614;37.326;2023-04-12T14:48:48;10.7;;;6.3;;
51515;SDS011;37603;55.614;37.326;2023-04-12T14:54:47;10.6;;;6.4;;
51515;SDS011;37603;55.614;37.326;2023-04-12T15:00:47;11.4;;;6.4;;
51515;SDS011;37603;55.614;37.326;2023-04-12T15:06:46;10.7;;;6.6;;
51515;SDS011;37603;55.614;37.326;2023-04-12T15:12:46;9.9;;;6.7;;
51515;SDS011;37603;55.614;37.326;2023-04-12T15:18:46;16.9;;;7.2;;
51515;SDS011;37603;55.614;37.326;2023-04-12T15:24:45;8.8;;;7.1;;
51515;SDS011;37603;55.614;37.326;2023-04-12T15:30:44;10.8;;;6.7;;
51515;SDS011;37603;55.614;37.326;2023-04-12T15:36:44;11.3;;;6.6;;
51515;SDS011;37603;55.614;37.326;2023-04-12T15:42:43;12.3;;;6.8;;
51515;SDS011;37603;55.614;37.326;2023-04-12T15:48:43;10.7;;;6.9;;
51515;SDS011;37603;55.614;37.326;2023-04-12T15:54:42;14.3;;;7.3;;
51515;SDS011;37603;55.614;37.326;2023-04-12T16:00:42;10.0;;;6.8;;
51515;SDS011;37603;55.614;37.326;2023-04-12T16:06:41;10.8;;;7.4;;
51515;SDS011;37603;55.614;37.326;2023-04-12T16:12:41;11.6;;;8.1;;
51515;SDS011;37603;55.614;37.326;2023-04-12T16:18:40;11.4;;;7.7;;
51515;SDS011;37603;55.614;37.326;2023-04-12T16:24:39;14.2;;;8.4;;
51515;SDS011;37603;55.614;37.326;2023-04-12T16:30:39;11.7;;;7.9;;
51515;SDS011;37603;55.614;37.326;2023-04-12T16:36:38;13.9;;;7.6;;
51515;SDS011;37603;55.614;37.326;2023-04-12T16:42:38;14.3;;;7.7;;
51515;SDS011;37603;55.614;37.326;2023-04-12T16:48:37;16.3;;;8.2;;
51515;SDS011;37603;55.614;37.326;2023-04-12T16:54:36;15.1;;;7.9;;
51515;SDS011;37603;55.614;37.326;2023-04-12T17:00:35;17.3;;;9.0;;
51515;SDS011;37603;55.614;37.326;2023-04-12T17:06:35;18.3;;;10.1;;
51515;SDS011;37603;55.614;37.326;2023-04-12T17:12:34;19.0;;;8.8;;
51515;SDS011;37603;55.614;37.326;2023-04-12T17:18:33;16.8;;;8.1;;
51515;SDS011;37603;55.614;37.326;2023-04-12T17:24:33;17.5;;;8.1;;
51515;SDS011;37603;55.614;37.326;2023-04-12T17:30:33;17.3;;;8.2;;
51515;SDS011;37603;55.614;37.326;2023-04-12T17:36:31;20.9;;;8.5;;
51515;SDS011;37603;55.614;37.326;2023-04-12T17:42:30;19.0;;;8.9;;
51515;SDS011;37603;55.614;37.326;2023-04-12T17:48:29;24.5;;;9.8;;
51515;SDS011;37603;55.614;37.326;2023-04-12T17:54:30;21.3;;;10.4;;
51515;SDS011;37603;55.614;37.326;2023-04-12T18:00:28;24.9;;;11.8;;
51515;SDS011;37603;55.614;37.326;2023-04-12T18:06:27;22.2;;;9.6;;
51515;SDS011;37603;55.614;37.326;2023-04-12T18:18:26;26.2;;;12.4;;
51515;SDS011;37603;55.614;37.326;2023-04-12T18:24:25;29.0;;;13.4;;
51515;SDS011;37603;55.614;37.326;2023-04-12T18:30:24;33.1;;;14.1;;
51515;SDS011;37603;55.614;37.326;2023-04-12T18:36:23;28.6;;;11.5;;
51515;SDS011;37603;55.614;37.326;2023-04-12T18:42:22;31.6;;;12.3;;
51515;SDS011;37603;55.614;37.326;2023-04-12T18:48:21;33.8;;;14.6;;
51515;SDS011;37603;55.614;37.326;2023-04-12T18:54:21;29.0;;;11.5;;
51515;SDS011;37603;55.614;37.326;2023-04-12T19:00:20;28.0;;;11.7;;
51515;SDS011;37603;55.614;37.326;2023-04-12T19:06:20;21.5;;;11.2;;
51515;SDS011;37603;55.614;37.326;2023-04-12T19:12:18;22.0;;;10.5;;
51515;SDS011;37603;55.614;37.326;2023-04-12T19:18:17;23.3;;;10.8;;
51515;SDS011;37603;55.614;37.326;2023-04-12T19:24:16;25.5;;;10.8;;
51515;SDS011;37603;55.614;37.326;2023-04-12T19:30:15;21.9;;;10.9;;
51515;SDS011;37603;55.614;37.326;2023-04-12T19:36:14;27.9;;;11.0;;
51515;SDS011;37603;55.614;37.326;2023-04-12T19:42:15;27.8;;;11.1;;
51515;SDS011;37603;55.614;37.326;2023-04-12T19:48:13;26.0;;;11.2;;
51515;SDS011;37603;55.614;37.326;2023-04-12T19:54:12;36.3;;;11.0;;
51515;SDS011;37603;55.614;37.326;2023-04-12T20:00:12;24.6;;;11.0;;
51515;SDS011;37603;55.614;37.326;2023-04-12T20:06:10;26.4;;;11.2;;
51515;SDS011;37603;55.614;37.326;2023-04-12T20:12:09;26.6;;;11.2;;
51515;SDS011;37603;55.614;37.326;2023-04-12T20:18:08;25.3;;;11.3;;
51515;SDS011;37603;55.614;37.326;2023-04-12T20:24:07;26.4;;;11.1;;
51515;SDS011;37603;55.614;37.326;2023-04-12T20:30:07;27.6;;;11.0;;
51515;SDS011;37603;55.614;37.326;2023-04-12T20:36:06;27.4;;;11.4;;
51515;SDS011;37603;55.614;37.326;2023-04-12T20:42:04;23.5;;;11.5;;
51515;SDS011;37603;55.614;37.326;2023-04-12T20:48:04;26.9;;;12.0;;
51515;SDS011;37603;55.614;37.326;2023-04-12T20:54:03;24.0;;;11.4;;
51515;SDS011;37603;55.614;37.326;2023-04-12T21:00:02;27.0;;;11.7;;
51515;SDS011;37603;55.614;37.326;2023-04-12T21:06:03;26.0;;;11.8;;
51515;SDS011;37603;55.614;37.326;2023-04-12T21:12:00;24.8;;;11.1;;
51515;SDS011;37603;55.614;37.326;2023-04-12T21:17:59;28.8;;;11.2;;
51515;SDS011;37603;55.614;37.326;2023-04-12T21:24:01;23.6;;;10.9;;
51515;SDS011;37603;55.614;37.326;2023-04-12T21:29:57;27.0;;;11.9;;
51515;SDS011;37603;55.614;37.326;2023-04-12T21:35:56;28.3;;;11.1;;
51515;SDS011;37603;55.614;37.326;2023-04-12T21:41:56;29.3;;;11.4;;
51515;SDS011;37603;55.614;37.326;2023-04-12T21:47:55;36.9;;;12.4;;
51515;SDS011;37603;55.614;37.326;2023-04-12T21:53:53;23.6;;;11.7;;
51515;SDS011;37603;55.614;37.326;2023-04-12T21:59:52;32.8;;;12.4;;
51515;SDS011;37603;55.614;37.326;2023-04-12T22:05:52;26.6;;;11.8;;
51515;SDS011;37603;55.614;37.326;2023-04-12T22:11:50;25.9;;;12.2;;
51515;SDS011;37603;55.614;37.326;2023-04-12T22:17:50;27.2;;;11.4;;
51515;SDS011;37603;55.614;37.326;2023-04-12T22:23:49;26.3;;;12.1;;
51515;SDS011;37603;55.614;37.326;2023-04-12T22:29:49;21.6;;;11.6;;
51515;SDS011;37603;55.614;37.326;2023-04-12T22:35:47;29.1;;;11.7;;
51515;SDS011;37603;55.614;37.326;2023-04-12T22:41:47;29.0;;;11.8;;
51515;SDS011;37603;55.614;37.326;2023-04-12T22:47:46;23.5;;;11.1;;
51515;SDS011;37603;55.614;37.326;2023-04-12T22:53:44;25.1;;;11.5;;
51515;SDS011;37603;55.614;37.326;2023-04-12T23:05:42;24.5;;;11.4;;
51515;SDS011;37603;55.614;37.326;2023-04-12T23:11:41;26.4;;;11.0;;
51515;SDS011;37603;55.614;37.326;2023-04-12T23:17:40;25.1;;;11.0;;
51515;SDS011;37603;55.614;37.326;2023-04-12T23:23:39;27.4;;;10.5;;
51515;SDS011;37603;55.614;37.326;2023-04-12T23:29:38;22.7;;;11.3;;
51515;SDS011;37603;55.614;37.326;2023-04-12T23:35:37;24.6;;;11.2;;
51515;SDS011;37603;55.614;37.326;2023-04-12T23:41:36;21.0;;;11.0;;
51515;SDS011;37603;55.614;37.326;2023-04-12T23:47:35;21.5;;;10.9;;
51515;SDS011;37603;55.614;37.326;2023-04-12T23:53:33;25.9;;;13.4;;
51515;SDS011;37603;55.614;37.326;2023-04-12T23:59:35;26.2;;;15.0;;
